AirNav   Everest Fuels
 
 1061 users online  

MU07 Angle Bar M Airport
Adrian, Missouri, USA

GOING TO ADRIAN?


FAA INFORMATION EFFECTIVE 03 NOVEMBER 2022

Location

FAA Identifier: MU07
Lat/Long: 38-23-41.0650N 094-18-36.8130W
38-23.684417N 094-18.613550W
38.3947403,-94.3102258
(estimated)
Elevation: 900 ft. / 274 m (estimated)
Variation: 05E (1990)
From city: 2 miles W of ADRIAN, MO
Time zone: UTC -6 (UTC -5 during Daylight Saving Time)
Zip code: 64720

Airport Operations

Airport use: Private use. Permission required prior to landing
Activation date: 02/1994
Control tower: no
ARTCC: KANSAS CITY CENTER
FSS: COLUMBIA FLIGHT SERVICE STATION
Attendance: UNATNDD
Wind indicator: yes
Segmented circle: no

Airport Communications

WX AWOS-3PT at LRY (13 nm N): 119.975 (816-380-5936)

Nearby radio navigation aids

VOR radial/distance  VOR name  Freq  Var
BUMr042/11.2BUTLER VORTAC115.9007E

Airport Services

Runway Information

Runway 9/27

Dimensions: 2000 x 30 ft. / 610 x 9 m
Surface: turf
RUNWAY 9  RUNWAY 27
Traffic pattern: leftleft

Airport Ownership and Management from official FAA records

Ownership: Privately-owned
Owner: BETTY MARTENS
12534 NE CTY RD 2763
ADRIAN, MO 64720
Phone 816-297-2934
Manager: BETTY MARTENS
12534 NE CTY RD 2763
ADRIAN, MO 64720
Phone 816-297-2934

Airport Operational Statistics

Aircraft based on the field: 2
Single engine airplanes: 2
    

Additional Remarks

FOR CD CTC KANSAS CITY ARTCC AT 913-254-8508.

Instrument Procedures

There are no published instrument procedures at MU07.

Some nearby airports with instrument procedures:

KBUM - Butler Memorial Airport (6 nm S)
KLRY - Lawrence Smith Memorial Airport (13 nm N)
KGLY - Clinton Regional Airport (30 nm E)
K81 - Miami County Airport (30 nm W)
KNVD - Nevada Municipal Airport (33 nm S)
 
Loc | Ops | Rwys | IFR | FBO | Links
Com | Nav | Svcs | Stats | Notes
Area around MU07 (Angle Bar M Airport)
 
Road maps at: MapQuest Bing Google
 
Aerial photo
No photo
 
Sectional chart

 
Airport distance calculator
Flying to Angle Bar M Airport? Find the distance to fly.

From to MU07

Sunrise and sunset
Times for 29-Nov-2022
 Local
(UTC-6)
 Zulu
(UTC)
Morning civil twilight06:4612:46
Sunrise07:1513:15
Sunset16:5722:57
Evening civil twilight17:2623:26

Current date and time
Zulu (UTC)  30-Nov-2022 00:15:51
Local (UTC-6)  29-Nov-2022 18:15:51
 
METAR
KLRY 
13nm N 
292355Z AUTO 33014G23KT 10SM OVC021 01/M02 A2989 RMK AO2
TAF
KIXD 
37nm NW 
292156Z 2922/3018 32014G24KT P6SM OVC015 FM300100 32013G23KT P6SM SCT070 FM301200 30010KT P6SM SKC
KSZL 
41nm NE 
292139Z 2921/0101 31015G25KT 9999 BKN020 620204 QNH2965INS BECMG 2921/2923 30015G25KT 9999 OVC015 620155 QNH2975INS BECMG 3003/3004 31015G25KT 9999 BKN030 620303 QNH2980INS BECMG 3006/3007 30012KT 9999 FEW120 QNH3010INS BECMG 3015/3016 29012G20KT 9999 SKC QNH3030INS TX05/2922Z TNM03/3012Z
KMKC 
45nm N 
291728Z 2918/3018 29016G26KT P6SM BKN018 FM300100 32013G23KT P6SM SCT070 FM301200 30010KT P6SM SKC
NOTAMs
Click for the latest NOTAMs
NOTAMs are issued by the DoD/FAA and will open in a separate window not controlled by AirNav.

 

 
 

Would you like to see your business listed on this page?

 If your business provides an interesting product or service to pilots, flight crews, aircraft, or users of the Angle Bar M Airport, you should consider listing it here.  To start the listing process, click on the button below
 
Add a business
 

Other Pages about Angle Bar M Airport

Update a link
 
Copyright © AirNav, LLC. All rights reserved. Privacy Policy  Contact